Latest Weather Observations for Kadina

IDS60801

Issued at 8:01 am CST Friday 27 May 2016 (issued every 30 minutes, with the page automatically refreshed every 10 minutes)

About weather observations | Map of weather stations | Latest weather observations for SA | Other Formats
Station Details ID: 022050 Name: KADINA AWS Lat: -33.97 Lon: 137.66 Height: 41.14 m
Data from the previous 72 hours. | See also: Recent months at Kadina
Date/Time
CST
Temp
°C
App
Temp
°C
Dew
Point
Rel
Hum
%
Delta-T
°C
Wind Press
QNH
hPa
Press
MSL
hPa
Rain
since 9 am
mm
Dir
 
Spd
km/h
Gust
km/h
Spd
kts
Gust
kts
27/08:00am 13.5 7.1 10.7 83 1.5 W 35 44 19 24 1010.6 - 0.6
27/07:30am 13.5 7.2 10.9 84 1.4 W 35 44 19 24 1010.4 - 0.6
27/07:00am 13.5 7.2 11.2 86 1.2 W 35 46 19 25 1010.5 - 0.6
27/06:30am 13.8 7.1 11.1 84 1.4 WNW 37 48 20 26 1010.5 - 0.6
27/06:00am 13.6 7.9 11.3 86 1.2 WNW 32 41 17 22 1010.6 1010.4 0.6
27/05:30am 13.5 8.6 11.2 86 1.2 WNW 28 35 15 19 1010.4 - 0.6
27/05:00am 13.7 9.1 11.0 84 1.4 WNW 26 32 14 17 1010.5 - 0.6
27/04:30am 13.5 9.3 11.0 85 1.3 WNW 24 30 13 16 1010.7 - 0.6
27/04:00am 14.0 8.9 10.6 80 1.8 WNW 28 37 15 20 1010.6 - 0.6
27/03:30am 13.9 9.7 11.1 83 1.5 WNW 24 30 13 16 1010.9 - 0.6
27/03:00am 13.7 10.2 11.0 84 1.4 WNW 20 30 11 16 1011.2 1011.0 0.6
27/02:30am 13.5 10.3 11.2 86 1.2 NW 19 20 10 11 1011.5 - 0.6
27/02:00am 13.3 9.4 10.8 85 1.3 WNW 22 32 12 17 1011.9 - 0.6
27/01:30am 13.1 9.6 10.8 86 1.2 NW 20 24 11 13 1011.8 - 0.6
27/01:00am 13.1 9.5 10.6 85 1.3 NW 20 26 11 14 1011.9 - 0.6
27/12:30am 13.0 10.0 10.7 86 1.2 NW 17 19 9 10 1012.2 - 0.6
27/12:00am 13.2 10.8 11.3 88 1.0 NW 15 19 8 10 1012.3 1012.1 0.6
 
Date/Time
CST
Temp
°C
App
Temp
°C
Dew
Point
Rel
Hum
%
Delta-T
°C
Wind Press
QNH
hPa
Press
MSL
hPa
Rain
since 9 am
mm
Dir
 
Spd
km/h
Gust
km/h
Spd
kts
Gust
kts
26/11:30pm 12.6 9.9 10.5 87 1.1 NW 15 19 8 10 1012.4 - 0.6
26/11:00pm 12.5 9.6 10.9 90 0.8 NNW 17 20 9 11 1012.4 - 0.6
26/10:30pm 12.4 9.9 11.0 91 0.7 NW 15 17 8 9 1012.8 - 0.6
26/10:00pm 11.9 10.0 10.5 91 0.7 NNW 11 11 6 6 1012.9 - 0.6
26/09:30pm 12.9 11.7 10.4 85 1.3 NW 7 9 4 5 1012.9 - 0.6
26/09:00pm 12.6 11.0 10.3 86 1.2 WNW 9 11 5 6 1013.0 1012.8 0.6
26/08:30pm 11.9 10.1 9.6 86 1.2 WNW 9 9 5 5 1013.0 - 0.6
26/08:00pm 12.1 10.7 9.5 84 1.3 WNW 7 7 4 4 1013.1 - 0.6
26/07:30pm 12.8 12.9 10.0 83 1.4 CALM 0 0 0 0 1012.7 - 0.6
26/07:00pm 12.2 12.0 10.3 88 1.0 W 2 7 1 4 1012.5 - 0.6
26/06:30pm 12.9 11.9 10.3 84 1.3 SSW 6 7 3 4 1012.2 - 0.6
26/06:00pm 13.6 13.7 10.2 80 1.8 CALM 0 0 0 0 1011.8 1011.6 0.6
26/05:30pm 14.2 13.3 11.2 82 1.6 WSW 7 9 4 5 1011.6 - 0.6
26/05:00pm 14.6 12.6 10.0 74 2.4 WSW 11 13 6 7 1011.6 - 0.6
26/04:30pm 15.4 12.7 10.2 71 2.7 WSW 15 20 8 11 1011.5 - 0.6
26/04:00pm 15.9 12.1 9.1 64 3.5 WSW 19 28 10 15 1011.1 - 0.6
26/03:30pm 16.1 12.4 10.0 67 3.2 WSW 20 30 11 16 1011.0 - 0.6
26/03:00pm 16.2 11.9 9.2 63 3.6 WSW 22 28 12 15 1010.5 1010.3 0.6
26/02:30pm 15.9 11.1 8.9 63 3.6 WSW 24 30 13 16 1010.3 - 0.6
26/02:00pm 17.0 12.6 8.9 59 4.2 WSW 22 30 12 16 1010.1 - 0.6
26/01:30pm 16.5 12.3 9.7 64 3.6 WSW 22 30 12 16 1010.5 - 0.6
26/01:00pm 16.0 12.5 10.3 69 3.0 WSW 19 26 10 14 1010.6 - 0.6
26/12:30pm 16.0 13.3 11.8 76 2.3 SW 17 20 9 11 1010.7 - 0.6
26/12:00pm 15.2 13.1 12.5 84 1.5 WSW 15 19 8 10 1010.8 1010.6 0.6
26/11:30am 14.2 12.2 11.5 84 1.4 SW 13 33 7 18 1011.2 - 0.6
26/11:00am 15.7 13.9 10.9 73 2.6 S 11 15 6 8 1011.3 - 0.0
26/10:30am 15.9 14.4 11.9 77 2.2 S 11 15 6 8 1011.1 - 0.0
26/10:00am 14.1 12.8 11.1 82 1.6 S 9 15 5 8 1011.2 - 0.0
26/09:30am 13.0 9.6 11.2 89 1.0 S 20 26 11 14 1010.8 - 0.0
26/09:19am 13.7 7.9 10.9 83 1.5 S 32 35 17 19 1010.9 - 0.0
26/09:00am 14.0 12.8 11.7 86 1.2 SSE 9 13 5 7 1010.6 1010.4 34.8
26/08:30am 12.4 11.5 11.3 93 0.6 S 7 9 4 5 1010.3 - 34.8
26/08:00am 11.1 9.6 10.5 96 0.3 SSW 9 11 5 6 1010.3 - 34.8
26/07:30am 10.7 9.0 9.8 94 0.5 SSW 9 11 5 6 1010.2 - 34.8
26/07:00am 11.7 10.6 10.6 93 0.6 SSW 7 13 4 7 1009.9 - 34.8
26/06:30am 10.9 9.3 10.1 95 0.4 S 9 11 5 6 1009.3 - 34.4
26/06:00am 11.6 10.1 10.7 94 0.5 SW 9 11 5 6 1009.1 1008.9 34.4
26/05:30am 12.2 10.6 11.4 95 0.4 W 11 13 6 7 1009.0 - 34.4
26/05:00am 12.0 10.8 11.5 97 0.3 SSW 9 11 5 6 1008.9 - 34.4
26/04:30am 12.5 11.0 11.9 96 0.3 SSW 11 13 6 7 1008.4 - 34.4
26/04:00am 12.3 10.7 11.7 96 0.3 SSW 11 13 6 7 1008.3 - 34.4
26/03:30am 12.7 10.9 12.1 96 0.3 S 13 15 7 8 1008.2 - 34.4
26/03:00am 13.2 11.1 12.4 95 0.4 SW 15 19 8 10 1008.3 1008.1 34.2
26/02:30am 13.6 11.7 13.0 96 0.3 S 15 20 8 11 1007.9 - 34.2
26/02:00am 13.7 13.4 13.2 97 0.3 W 7 9 4 5 1007.5 - 32.8
26/01:30am 13.4 13.0 12.9 97 0.3 NW 7 9 4 5 1007.2 - 32.8
26/01:00am 13.9 13.3 13.4 97 0.3 WNW 9 11 5 6 1007.3 - 32.8
26/12:30am 13.7 13.4 13.2 97 0.3 NW 7 9 4 5 1007.2 - 32.8
26/12:00am 13.7 13.0 13.2 97 0.3 NW 9 11 5 6 1007.4 1007.2 32.8
 
Date/Time
CST
Temp
°C
App
Temp
°C
Dew
Point
Rel
Hum
%
Delta-T
°C
Wind Press
QNH
hPa
Press
MSL
hPa
Rain
since 9 am
mm
Dir
 
Spd
km/h
Gust
km/h
Spd
kts
Gust
kts
25/11:30pm 14.6 14.2 14.1 97 0.3 WNW 9 11 5 6 1007.5 - 30.6
25/11:00pm 14.6 13.8 14.1 97 0.3 NW 11 13 6 7 1007.4 - 28.6
25/10:30pm 14.6 13.4 14.0 96 0.3 NW 13 19 7 10 1007.7 - 25.2
25/10:00pm 14.6 13.3 13.8 95 0.4 W 13 17 7 9 1007.6 - 18.6
25/09:30pm 14.7 13.0 13.7 94 0.6 NW 15 24 8 13 1008.0 - 13.6
25/09:00pm 14.7 12.2 13.6 93 0.6 NNW 19 24 10 13 1007.7 1007.5 12.2
25/08:30pm 14.5 11.4 13.4 93 0.6 NNW 22 28 12 15 1007.9 - 12.2
25/08:00pm 14.3 11.2 13.5 95 0.4 N 22 28 12 15 1007.7 - 12.2
25/07:30pm 14.4 11.3 13.4 94 0.6 N 22 26 12 14 1007.7 - 12.0
25/07:00pm 14.3 11.7 13.3 94 0.6 NNW 19 24 10 13 1007.7 - 12.0
25/06:30pm 14.3 11.5 13.3 94 0.6 NNW 20 26 11 14 1007.8 - 12.0
25/06:00pm 14.2 11.4 13.2 94 0.6 NNW 20 24 11 13 1007.5 1007.3 11.8
25/05:30pm 14.1 11.3 13.1 94 0.6 N 20 26 11 14 1007.4 - 11.8
25/05:00pm 14.1 10.5 13.1 94 0.6 N 24 33 13 18 1007.2 - 11.6
25/04:30pm 13.9 10.3 13.0 94 0.5 N 24 30 13 16 1007.5 - 11.4
25/04:00pm 13.6 9.5 12.8 95 0.4 N 26 33 14 18 1007.8 - 10.8
25/03:30pm 13.7 9.6 12.8 94 0.5 N 26 35 14 19 1008.2 - 5.0
25/03:00pm 13.7 8.2 12.4 92 0.7 N 33 44 18 24 1007.8 1007.6 3.0
25/02:30pm 14.0 8.0 12.2 89 1.0 N 35 43 19 23 1007.9 - 2.0
25/02:00pm 14.0 8.3 11.9 87 1.1 N 33 46 18 25 1007.8 - 2.0
25/01:30pm 14.0 7.6 11.9 87 1.1 N 37 50 20 27 1008.0 - 2.0
25/01:00pm 14.4 7.3 12.3 87 1.1 N 41 50 22 27 1008.5 - 2.0
25/12:30pm 14.3 7.2 12.2 87 1.1 N 41 52 22 28 1008.6 - 2.0
25/12:00pm 14.4 6.1 12.6 89 1.0 N 48 59 26 32 1009.3 1009.1 2.0
25/11:42am 14.0 6.9 12.2 89 1.0 N 41 61 22 33 1010.2 - 2.0
25/11:30am 13.8 7.6 12.7 93 0.6 N 37 44 20 24 1010.1 - 2.0
25/11:00am 13.4 7.1 12.3 93 0.6 N 37 46 20 25 1011.2 - 2.0
25/10:30am 13.1 7.1 12.0 93 0.6 N 35 46 19 25 1012.1 - 2.0
25/10:00am 12.3 6.0 10.9 91 0.7 N 35 46 19 25 1011.9 - 1.6
25/09:30am 12.2 5.4 10.6 90 0.8 N 37 46 20 25 1012.6 - 1.0
25/09:00am 12.6 5.8 10.7 88 1.0 N 37 48 20 26 1012.9 1012.7 2.8
25/08:30am 12.3 6.4 10.5 89 0.9 N 32 43 17 23 1012.9 - 2.2
25/08:00am 12.4 5.7 9.8 84 1.3 N 35 46 19 25 1013.3 - 1.2
25/07:30am 13.1 6.9 9.2 77 2.0 N 32 43 17 23 1013.0 - 1.0
25/07:00am 13.1 8.8 9.4 78 1.9 N 22 28 12 15 1013.0 - 0.6
25/06:30am 13.3 8.1 8.8 74 2.3 N 26 32 14 17 1013.0 - 0.6
25/06:00am 13.4 8.3 7.8 69 2.8 N 24 30 13 16 1013.2 1013.0 0.6
25/05:30am 13.4 8.1 8.5 72 2.5 N 26 32 14 17 1013.0 - 0.6
25/05:00am 13.4 9.2 8.3 71 2.5 N 20 26 11 14 1013.4 - 0.6
25/04:30am 13.6 9.8 8.9 73 2.4 N 19 22 10 12 1013.7 - 0.6
25/04:00am 14.5 10.2 8.0 65 3.2 N 20 26 11 14 1013.8 - 0.6
25/03:30am 15.0 10.8 7.5 61 3.7 NNW 19 30 10 16 1013.9 - 0.6
25/03:00am 15.9 10.4 7.4 57 4.2 WNW 26 32 14 17 1014.7 1014.5 0.4
25/02:57am 16.0 10.6 6.4 53 4.7 W 24 33 13 18 1014.4 - 0.4
25/02:30am 14.8 10.2 8.3 65 3.3 N 22 30 12 16 1012.3 - 0.4
25/02:00am 13.9 9.3 8.1 68 2.9 N 22 32 12 17 1012.6 - 0.4
25/01:47am 14.3 8.0 7.4 63 3.4 N 30 48 16 26 1012.9 - 0.4
25/01:38am 15.6 8.5 6.3 54 4.5 N 33 48 18 26 1013.0 - 0.0
25/01:30am 14.5 9.6 6.8 60 3.7 NNE 22 30 12 16 1012.5 - 0.0
25/01:00am 14.2 8.8 4.5 52 4.5 NNE 22 26 12 14 1013.1 - 0.0
25/12:30am 14.1 8.3 4.4 52 4.5 NNE 24 30 13 16 1013.4 - 0.0
25/12:00am 15.7 9.0 -0.9 32 6.9 NNE 24 28 13 15 1013.8 1013.6 0.0
 
Date/Time
CST
Temp
°C
App
Temp
°C
Dew
Point
Rel
Hum
%
Delta-T
°C
Wind Press
QNH
hPa
Press
MSL
hPa
Rain
since 9 am
mm
Dir
 
Spd
km/h
Gust
km/h
Spd
kts
Gust
kts
24/11:30pm 15.4 8.9 -2.1 30 7.1 NNE 22 28 12 15 1013.8 - 0.0
24/11:00pm 15.7 8.6 -1.4 31 7.1 NNE 26 32 14 17 1014.0 - 0.0
24/10:30pm 14.7 8.4 3.5 47 5.1 NNE 26 32 14 17 1014.4 - 0.0
24/10:00pm 14.5 9.6 5.3 54 4.3 NNE 20 26 11 14 1014.9 - 0.0
24/09:30pm 15.4 9.9 5.9 53 4.6 N 24 28 13 15 1015.5 - 0.0
24/09:00pm 15.6 11.0 6.6 55 4.4 N 20 24 11 13 1015.6 1015.5 0.0
24/08:30pm 15.8 10.0 6.3 53 4.6 N 26 32 14 17 1015.7 - 0.0
24/08:00pm 16.2 9.8 5.2 48 5.2 N 28 33 15 18 1016.0 - 0.0
24/07:30pm 16.1 10.2 5.7 50 5.0 N 26 32 14 17 1016.3 - 0.0
24/07:00pm 15.7 10.5 5.3 50 5.0 N 22 30 12 16 1016.4 - 0.0
24/06:30pm 16.0 10.2 4.4 46 5.4 N 24 30 13 16 1016.4 - 0.0
24/06:00pm 15.9 10.5 4.3 46 5.4 N 22 28 12 15 1016.5 1016.4 0.0
24/05:30pm 16.2 10.8 4.3 45 5.6 N 22 28 12 15 1016.5 - 0.0
24/05:00pm 17.6 11.2 3.1 38 6.7 N 26 33 14 18 1016.4 - 0.0
24/04:30pm 18.9 11.6 2.3 33 7.6 N 30 37 16 20 1016.6 - 0.0
24/04:00pm 19.6 12.2 1.6 30 8.2 N 30 35 16 19 1016.9 - 0.0
24/03:30pm 20.0 12.8 2.8 32 8.0 N 30 37 16 20 1017.0 - 0.0
24/03:00pm 20.1 13.3 2.9 32 8.1 N 28 35 15 19 1017.5 1017.4 0.0
24/02:30pm 20.0 12.3 3.3 33 7.9 N 33 41 18 22 1018.0 - 0.0
24/02:00pm 20.0 13.0 4.1 35 7.6 N 30 39 16 21 1018.4 - 0.0
24/01:30pm 19.9 12.5 4.0 35 7.6 N 32 39 17 21 1018.7 - 0.0
24/01:00pm 19.9 13.6 4.0 35 7.6 N 26 35 14 19 1019.3 - 0.0
24/12:30pm 19.5 13.4 4.8 38 7.1 N 26 32 14 17 1019.9 - 0.0
24/12:00pm 20.3 14.5 6.3 40 7.0 N 26 39 14 21 1020.5 1020.4 0.0
24/11:30am 19.9 14.8 5.9 40 7.0 N 22 33 12 18 1021.1 - 0.0
24/11:00am 19.4 15.1 6.8 44 6.3 N 19 26 10 14 1021.9 - 0.0
24/10:30am 17.6 13.3 6.8 49 5.4 N 19 24 10 13 1022.6 - 0.0
24/10:00am 17.4 14.0 9.3 59 4.2 NNE 17 22 9 12 1022.8 - 0.0
24/09:30am 14.6 10.9 9.6 72 2.6 NNE 19 22 10 12 1023.0 - 0.0
24/09:00am 12.8 9.3 8.9 77 2.0 NE 17 20 9 11 1023.1 1023.0 0.2
24/08:30am 8.5 6.3 7.7 95 0.4 E 9 11 5 6 1023.1 - 0.2

Other Formats:

Comma delimited format used in spreadsheet applications
http://www.bom.gov.au/fwo/IDS60801/IDS60801.94685.axf

JavaScript Object Notation format (JSON) in row-major order
http://www.bom.gov.au/fwo/IDS60801/IDS60801.94685.json